createdAt,value
2023-05-23T00:00:29.032Z,101190.25
2023-05-23T00:02:57.158Z,101185.41
2023-05-23T00:05:26.878Z,101189.53
2023-05-23T00:07:54.794Z,101182.41
2023-05-23T00:10:23.628Z,101180.81
2023-05-23T00:12:52.640Z,101169.03
2023-05-23T00:15:21.029Z,101169.59
2023-05-23T00:17:52.027Z,101165.78
2023-05-23T00:20:21.212Z,101165.78
2023-05-23T00:22:50.422Z,101158.06
2023-05-23T00:25:18.405Z,101148.81
2023-05-23T00:27:46.266Z,101143.91
2023-05-23T00:30:14.355Z,101151.44
2023-05-23T00:32:42.429Z,101158.69
2023-05-23T00:35:10.659Z,101158.84
2023-05-23T00:37:38.520Z,101153.28
2023-05-23T00:40:09.378Z,101156.56
2023-05-23T00:42:37.421Z,101151.75
2023-05-23T00:45:09.435Z,101160.66
2023-05-23T00:47:37.544Z,101141.75
2023-05-23T00:50:09.497Z,101150.13
2023-05-23T00:52:40.267Z,101156.91
2023-05-23T00:55:13.430Z,101154.69
2023-05-23T00:57:44.698Z,101143.75
2023-05-23T01:00:14.414Z,101149.88
2023-05-23T01:02:46.143Z,101144.47
2023-05-23T01:05:17.696Z,101148.56
2023-05-23T01:07:46.844Z,101136.34
2023-05-23T01:10:18.264Z,101132.94
2023-05-23T01:12:58.032Z,101134.63
2023-05-23T01:15:38.972Z,101124.25
2023-05-23T01:18:11.688Z,101131.50
2023-05-23T01:20:45.390Z,101122.13
2023-05-23T01:23:38.360Z,101121.16
2023-05-23T01:26:19.979Z,101121.88
2023-05-23T01:28:55.111Z,101124.56
2023-05-23T01:31:26.890Z,101117.34
2023-05-23T01:33:57.133Z,101123.03
2023-05-23T01:36:25.407Z,101126.91
2023-05-23T01:38:53.451Z,101115.25
2023-05-23T01:41:21.889Z,101119.81
2023-05-23T01:43:51.342Z,101114.25
2023-05-23T01:46:20.120Z,101107.28
2023-05-23T01:48:49.087Z,101116.13
2023-05-23T01:51:17.276Z,101119.97
2023-05-23T01:53:45.416Z,101121.84
2023-05-23T01:56:13.876Z,101121.41
2023-05-23T01:58:42.444Z,101114.28
2023-05-23T02:01:12.671Z,101114.56
2023-05-23T02:03:41.040Z,101113.44
2023-05-23T02:06:08.967Z,101121.00
2023-05-23T02:08:37.093Z,101122.53
2023-05-23T02:11:05.122Z,101119.47
2023-05-23T02:13:33.378Z,101124.25
2023-05-23T02:16:01.391Z,101127.41
2023-05-23T02:18:30.927Z,101131.25
2023-05-23T02:20:58.759Z,101129.66
2023-05-23T02:23:26.791Z,101135.34
2023-05-23T02:25:54.649Z,101141.34
2023-05-23T02:28:22.528Z,101136.38
2023-05-23T02:30:50.559Z,101130.34
2023-05-23T02:33:19.749Z,101134.03
2023-05-23T02:35:51.459Z,101135.28
2023-05-23T02:38:21.818Z,101131.72
2023-05-23T02:40:50.691Z,101141.34
2023-05-23T02:43:18.665Z,101136.19
2023-05-23T02:45:46.678Z,101132.91
2023-05-23T02:48:14.636Z,101141.63
2023-05-23T02:50:42.700Z,101141.97
2023-05-23T02:53:12.108Z,101135.72
2023-05-23T02:55:40.349Z,101142.50
2023-05-23T02:58:09.037Z,101141.38
2023-05-23T03:00:37.685Z,101134.41
2023-05-23T03:03:05.802Z,101140.22
2023-05-23T03:05:34.350Z,101142.63
2023-05-23T03:08:02.558Z,101137.38
2023-05-23T03:10:31.822Z,101135.13
2023-05-23T03:12:59.849Z,101146.78
2023-05-23T03:15:27.812Z,101149.75
2023-05-23T03:17:55.807Z,101150.41
2023-05-23T03:20:23.864Z,101146.38
2023-05-23T03:22:53.236Z,101147.56
2023-05-23T03:25:23.934Z,101146.38
2023-05-23T03:27:53.421Z,101139.28
2023-05-23T03:30:21.674Z,101139.69
2023-05-23T03:32:49.995Z,101144.22
2023-05-23T03:35:18.429Z,101139.28
2023-05-23T03:37:46.440Z,101141.25
2023-05-23T03:40:14.351Z,101147.50
2023-05-23T03:42:42.378Z,101138.03
2023-05-23T03:45:12.354Z,101146.25
2023-05-23T03:47:40.500Z,101139.28
2023-05-23T03:50:09.323Z,101142.56
2023-05-23T03:52:37.397Z,101134.47
2023-05-23T03:55:05.866Z,101144.66
2023-05-23T03:57:33.941Z,101134.75
2023-05-23T04:00:01.922Z,101143.69
2023-05-23T04:02:31.551Z,101140.44
2023-05-23T04:05:00.802Z,101137.50
2023-05-23T04:07:28.778Z,101147.72
2023-05-23T04:09:56.636Z,101143.78
2023-05-23T04:12:25.136Z,101151.00
2023-05-23T04:14:53.189Z,101151.66
2023-05-23T04:17:21.294Z,101152.28
2023-05-23T04:19:50.861Z,101163.00
2023-05-23T04:22:18.831Z,101156.88
2023-05-23T04:24:46.814Z,101157.91
2023-05-23T04:27:14.824Z,101161.47
2023-05-23T04:29:42.844Z,101160.34
2023-05-23T04:32:12.419Z,101171.25
2023-05-23T04:34:41.298Z,101165.72
2023-05-23T04:37:11.255Z,101166.97
2023-05-23T04:39:39.078Z,101166.00
2023-05-23T04:42:08.402Z,101165.50
2023-05-23T04:44:37.497Z,101177.97
2023-05-23T04:47:05.852Z,101171.25
2023-05-23T04:49:34.667Z,101164.53
2023-05-23T04:52:02.652Z,101166.91
2023-05-23T04:54:33.158Z,101166.66
2023-05-23T04:57:01.743Z,101171.00
2023-05-23T04:59:29.632Z,101174.88
2023-05-23T05:01:57.607Z,101174.28
2023-05-23T05:04:25.667Z,101179.69
2023-05-23T05:06:53.772Z,101172.81
2023-05-23T05:09:22.290Z,101172.56
2023-05-23T05:11:51.868Z,101173.41
2023-05-23T05:14:22.619Z,101171.59
2023-05-23T05:16:51.458Z,101174.28
2023-05-23T05:19:19.628Z,101169.50
2023-05-23T05:21:47.736Z,101177.59
2023-05-23T05:24:15.907Z,101174.38
2023-05-23T05:26:43.873Z,101176.97
2023-05-23T05:29:13.469Z,101175.72
2023-05-23T05:31:42.476Z,101174.53
2023-05-23T05:34:11.153Z,101175.13
2023-05-23T05:36:46.041Z,101172.81
2023-05-23T05:39:14.410Z,101173.41
2023-05-23T05:41:45.433Z,101177.06
2023-05-23T05:44:14.627Z,101182.56
2023-05-23T05:46:42.625Z,101173.53
2023-05-23T05:49:12.361Z,101183.19
2023-05-23T05:51:40.511Z,101181.84
2023-05-23T05:54:08.860Z,101178.41
2023-05-23T05:56:36.834Z,101189.09
2023-05-23T05:59:04.746Z,101187.47
2023-05-23T06:01:34.905Z,101187.34
2023-05-23T06:04:03.371Z,101201.22
2023-05-23T06:06:32.149Z,101185.28
2023-05-23T06:09:00.548Z,101186.13
2023-05-23T06:11:28.462Z,101193.75
2023-05-23T06:13:56.467Z,101197.19
2023-05-23T06:16:24.435Z,101205.88
2023-05-23T06:18:54.189Z,101199.97
2023-05-23T06:21:25.535Z,101210.53
2023-05-23T06:23:53.390Z,101202.19
2023-05-23T06:26:21.196Z,101208.19
2023-05-23T06:28:49.375Z,101208.06
2023-05-23T06:31:17.350Z,101208.31
2023-05-23T06:33:45.314Z,101211.41
2023-05-23T06:36:14.573Z,101210.25
2023-05-23T06:38:42.555Z,101209.81
2023-05-23T06:41:10.433Z,101209.31
2023-05-23T06:43:38.378Z,101215.53
2023-05-23T06:46:07.539Z,101214.31
2023-05-23T06:48:35.564Z,101214.56
2023-05-23T06:51:03.870Z,101220.09
2023-05-23T06:53:33.679Z,101217.41
2023-05-23T06:56:01.562Z,101231.22
2023-05-23T06:58:30.004Z,101226.69
2023-05-23T07:00:58.641Z,101233.06
2023-05-23T07:03:27.482Z,101231.59
2023-05-23T07:05:55.772Z,101229.13
2023-05-23T07:08:23.892Z,101236.34
2023-05-23T07:10:53.183Z,101246.50
2023-05-23T07:13:21.050Z,101237.00
2023-05-23T07:15:49.084Z,101240.91
2023-05-23T07:18:17.034Z,101252.41
2023-05-23T07:20:44.902Z,101255.09
2023-05-23T07:23:12.887Z,101258.88
2023-05-23T07:25:53.748Z,101250.91
2023-05-23T07:28:30.499Z,101253.22
2023-05-23T07:30:58.747Z,101257.41
2023-05-23T07:33:26.819Z,101266.34
2023-05-23T07:35:55.057Z,101272.00
2023-05-23T07:38:22.899Z,101269.53
2023-05-23T07:40:59.160Z,101274.94
2023-05-23T07:43:32.327Z,101291.47
2023-05-23T07:46:00.272Z,101290.22
2023-05-23T07:48:28.219Z,101285.34
2023-05-23T07:50:56.304Z,101286.91
2023-05-23T07:53:24.158Z,101285.47
2023-05-23T07:55:52.498Z,101296.34
2023-05-23T07:58:20.509Z,101296.97
2023-05-23T08:00:52.500Z,101297.09
2023-05-23T08:03:21.097Z,101298.47
2023-05-23T08:05:48.933Z,101303.47
2023-05-23T08:08:16.789Z,101309.19
2023-05-23T08:10:45.836Z,101304.66
2023-05-23T08:13:14.332Z,101309.72
2023-05-23T08:15:42.321Z,101317.31
2023-05-23T08:18:12.209Z,101315.13
2023-05-23T08:20:40.397Z,101320.03
2023-05-23T08:23:08.340Z,101329.31
2023-05-23T08:25:36.336Z,101333.97
2023-05-23T08:28:04.221Z,101330.06
2023-05-23T08:30:32.850Z,101345.75
2023-05-23T08:33:04.764Z,101357.47
2023-05-23T08:35:36.508Z,101350.47
2023-05-23T08:38:07.766Z,101364.56
2023-05-23T08:40:36.951Z,101351.63
2023-05-23T08:43:05.003Z,101359.72
2023-05-23T08:45:34.897Z,101365.38
2023-05-23T08:48:04.491Z,101372.44
2023-05-23T08:50:32.928Z,101365.03
2023-05-23T08:53:03.890Z,101377.84
2023-05-23T08:55:31.980Z,101381.94
2023-05-23T08:58:00.735Z,101386.25
2023-05-23T09:00:29.428Z,101382.66
2023-05-23T09:02:58.472Z,101388.19
2023-05-23T09:05:27.923Z,101383.66
2023-05-23T09:07:56.868Z,101390.84
2023-05-23T09:10:29.865Z,101389.88
2023-05-23T09:12:58.427Z,101394.19
2023-05-23T09:15:27.377Z,101393.53
2023-05-23T09:18:00.672Z,101398.16
2023-05-23T09:20:29.734Z,101401.72
2023-05-23T09:22:58.016Z,101417.91
2023-05-23T09:25:27.384Z,101419.41
2023-05-23T09:27:56.686Z,101432.03
2023-05-23T09:30:24.659Z,101434.22
2023-05-23T09:33:04.779Z,101443.72
2023-05-23T09:35:33.826Z,101447.94
2023-05-23T09:38:01.814Z,101453.97
2023-05-23T09:40:34.586Z,101455.78
2023-05-23T09:43:07.851Z,101444.41
2023-05-23T09:45:36.339Z,101450.53
2023-05-23T09:48:04.508Z,101460.41
2023-05-23T09:50:34.225Z,101458.81
2023-05-23T09:53:02.279Z,101454.09
2023-05-23T09:55:30.209Z,101465.16
2023-05-23T09:58:01.883Z,101464.75
2023-05-23T10:00:29.929Z,101476.75
2023-05-23T10:03:08.313Z,101476.91
2023-05-23T10:05:40.790Z,101471.00
2023-05-23T10:08:15.460Z,101470.72
2023-05-23T10:11:33.938Z,101474.41
2023-05-23T10:14:07.938Z,101484.38
2023-05-23T10:16:45.289Z,101476.78
2023-05-23T10:19:21.856Z,101489.56
2023-05-23T10:21:52.461Z,101500.28
2023-05-23T10:24:21.007Z,101494.38
2023-05-23T10:26:50.513Z,101507.91
2023-05-23T10:29:19.998Z,101508.91
2023-05-23T10:31:48.722Z,101514.91
2023-05-23T10:34:24.272Z,101507.19
2023-05-23T10:37:00.639Z,101513.88
2023-05-23T10:39:51.081Z,101510.09
2023-05-23T10:42:25.924Z,101521.94
2023-05-23T10:45:15.188Z,101530.13
2023-05-23T10:47:43.195Z,101524.50
2023-05-23T10:50:14.614Z,101538.13
2023-05-23T10:52:43.186Z,101539.13
2023-05-23T10:55:15.400Z,101549.34
2023-05-23T10:57:44.768Z,101549.19
2023-05-23T11:00:18.125Z,101544.38
2023-05-23T11:02:55.625Z,101550.94
2023-05-23T11:05:26.877Z,101549.47
2023-05-23T11:08:11.995Z,101544.84
2023-05-23T11:10:53.898Z,101563.44
2023-05-23T11:13:22.842Z,101559.16
2023-05-23T11:15:52.502Z,101569.84
2023-05-23T11:18:25.735Z,101577.09
2023-05-23T11:20:54.821Z,101577.84
2023-05-23T11:23:23.743Z,101571.69
2023-05-23T11:25:53.869Z,101567.78
2023-05-23T11:28:22.019Z,101568.00
2023-05-23T11:30:50.998Z,101569.38
2023-05-23T11:33:21.348Z,101574.53
2023-05-23T11:35:51.837Z,101572.94
2023-05-23T11:38:19.921Z,101576.56
2023-05-23T11:40:48.364Z,101578.41
2023-05-23T11:43:17.971Z,101577.25
2023-05-23T11:45:47.540Z,101582.00
2023-05-23T11:48:18.203Z,101587.56
2023-05-23T11:50:49.170Z,101587.66
2023-05-23T11:53:20.557Z,101592.09
2023-05-23T11:55:53.262Z,101587.97
2023-05-23T11:58:22.348Z,101596.09
2023-05-23T12:00:50.794Z,101585.31
2023-05-23T12:03:19.865Z,101593.22
2023-05-23T12:05:49.788Z,101592.47
2023-05-23T12:08:18.196Z,101596.03
2023-05-23T12:10:55.354Z,101598.59
2023-05-23T12:13:26.162Z,101600.56
2023-05-23T12:15:56.293Z,101603.09
2023-05-23T12:18:24.633Z,101617.06
2023-05-23T12:20:54.533Z,101603.78
2023-05-23T12:23:26.371Z,101600.41
2023-05-23T12:25:55.533Z,101601.44
2023-05-23T12:28:36.962Z,101608.69
2023-05-23T12:31:13.594Z,101612.34
2023-05-23T12:33:44.493Z,101612.28
2023-05-23T12:36:13.857Z,101617.41
2023-05-23T12:38:45.492Z,101617.03
2023-05-23T12:41:16.906Z,101614.41
2023-05-23T12:43:52.727Z,101618.13
2023-05-23T12:46:20.977Z,101617.78
2023-05-23T12:48:48.858Z,101616.41
2023-05-23T12:51:18.724Z,101624.69
2023-05-23T12:53:47.026Z,101619.75
2023-05-23T12:56:15.128Z,101626.69
2023-05-23T12:58:43.683Z,101630.88
2023-05-23T13:01:12.330Z,101634.59
2023-05-23T13:03:40.573Z,101629.91
2023-05-23T13:06:09.624Z,101635.50
2023-05-23T13:08:38.987Z,101638.31
2023-05-23T13:11:06.927Z,101656.84
2023-05-23T13:13:34.913Z,101643.69
2023-05-23T13:16:02.890Z,101647.59
2023-05-23T13:18:31.138Z,101665.44
2023-05-23T13:20:59.140Z,101664.50
2023-05-23T13:23:27.065Z,101658.88
2023-05-23T13:25:58.027Z,101668.25
2023-05-23T13:28:26.055Z,101666.13
2023-05-23T13:30:53.963Z,101667.84
2023-05-23T13:33:23.207Z,101669.38
2023-05-23T13:35:52.568Z,101678.97
2023-05-23T13:38:21.307Z,101670.72
2023-05-23T13:40:51.698Z,101674.16
2023-05-23T13:43:21.125Z,101675.06
2023-05-23T13:45:49.177Z,101688.19
2023-05-23T13:48:17.107Z,101680.00
2023-05-23T13:50:45.613Z,101682.94
2023-05-23T13:53:16.627Z,101678.53
2023-05-23T13:55:45.657Z,101682.56
2023-05-23T13:58:13.809Z,101685.69
2023-05-23T14:00:43.388Z,101689.47
2023-05-23T14:03:11.892Z,101698.00
2023-05-23T14:05:39.967Z,101686.38
2023-05-23T14:08:08.151Z,101695.63
2023-05-23T14:10:36.029Z,101703.75
2023-05-23T14:13:04.045Z,101693.53
2023-05-23T14:15:33.822Z,101691.69
2023-05-23T14:18:04.221Z,101691.97
2023-05-23T14:20:33.154Z,101701.56
2023-05-23T14:23:01.478Z,101702.56
2023-05-23T14:25:29.337Z,101698.16
2023-05-23T14:27:57.241Z,101691.97
2023-05-23T14:30:25.824Z,101706.56
2023-05-23T14:32:54.640Z,101702.31
2023-05-23T14:35:25.704Z,101715.38
2023-05-23T14:37:53.529Z,101706.88
2023-05-23T14:40:21.607Z,101724.34
2023-05-23T14:42:49.403Z,101712.03
2023-05-23T14:45:19.057Z,101722.44
2023-05-23T14:47:47.218Z,101718.84
2023-05-23T14:50:15.919Z,101727.09
2023-05-23T14:52:45.303Z,101723.78
2023-05-23T14:55:13.224Z,101730.56
2023-05-23T14:57:41.022Z,101732.50
2023-05-23T15:00:10.269Z,101742.53
2023-05-23T15:02:38.469Z,101732.88
2023-05-23T15:05:07.859Z,101731.69
2023-05-23T15:07:35.745Z,101743.00
2023-05-23T15:10:06.441Z,101739.47
2023-05-23T15:12:34.283Z,101739.16
2023-05-23T15:15:04.139Z,101747.28
2023-05-23T15:17:32.140Z,101746.84
2023-05-23T15:20:00.151Z,101744.69
2023-05-23T15:22:36.531Z,101760.63
2023-05-23T15:25:08.318Z,101744.59
2023-05-23T15:27:36.223Z,101738.91
2023-05-23T15:30:05.238Z,101747.38
2023-05-23T15:32:33.261Z,101747.19
2023-05-23T15:35:01.041Z,101748.31
2023-05-23T15:37:28.971Z,101754.38
2023-05-23T15:39:57.022Z,101755.06
2023-05-23T15:42:26.983Z,101751.38
2023-05-23T15:44:54.918Z,101752.56
2023-05-23T15:47:23.232Z,101763.22
2023-05-23T15:49:51.156Z,101764.84
2023-05-23T15:52:18.978Z,101759.56
2023-05-23T15:54:47.293Z,101762.56
2023-05-23T15:57:15.063Z,101768.31
2023-05-23T15:59:44.536Z,101764.47
2023-05-23T16:02:12.454Z,101771.19
2023-05-23T16:04:40.286Z,101756.50
2023-05-23T16:07:08.159Z,101758.19
2023-05-23T16:09:36.034Z,101767.50
2023-05-23T16:12:04.346Z,101764.47
2023-05-23T16:14:35.853Z,101758.78
2023-05-23T16:17:07.002Z,101767.50
2023-05-23T16:19:35.545Z,101773.22
2023-05-23T16:22:03.785Z,101775.88
2023-05-23T16:24:31.654Z,101768.06
2023-05-23T16:27:03.315Z,101772.66
2023-05-23T16:29:31.728Z,101776.03
2023-05-23T16:31:59.952Z,101774.13
2023-05-23T16:34:29.472Z,101773.50
2023-05-23T16:36:57.341Z,101774.88
2023-05-23T16:39:28.626Z,101777.88
2023-05-23T16:41:58.740Z,101772.69
2023-05-23T16:44:28.154Z,101790.72
2023-05-23T16:46:56.214Z,101786.28
2023-05-23T16:49:26.953Z,101787.59
2023-05-23T16:51:56.404Z,101797.16
2023-05-23T16:54:28.562Z,101790.72
2023-05-23T16:57:00.440Z,101786.00
2023-05-23T16:59:29.013Z,101788.16
2023-05-23T17:01:57.101Z,101781.41
2023-05-23T17:04:25.981Z,101782.22
2023-05-23T17:06:54.007Z,101781.84
2023-05-23T17:09:24.349Z,101782.38
2023-05-23T17:11:52.852Z,101775.38
2023-05-23T17:14:21.130Z,101772.97
2023-05-23T17:16:49.095Z,101774.47
2023-05-23T17:19:17.091Z,101788.31
2023-05-23T17:21:45.075Z,101782.53
2023-05-23T17:24:13.663Z,101796.63
2023-05-23T17:26:42.990Z,101800.47
2023-05-23T17:29:11.130Z,101805.53
2023-05-23T17:31:42.319Z,101805.25
2023-05-23T17:34:12.178Z,101803.81
2023-05-23T17:36:40.426Z,101809.25
2023-05-23T17:39:08.617Z,101815.81
2023-05-23T17:41:36.711Z,101817.78
2023-05-23T17:44:05.977Z,101815.16
2023-05-23T17:46:34.636Z,101811.53
2023-05-23T17:49:02.709Z,101818.13
2023-05-23T17:51:30.911Z,101818.50
2023-05-23T17:53:59.084Z,101816.72
2023-05-23T17:56:27.072Z,101818.56
2023-05-23T17:58:55.007Z,101817.50
2023-05-23T18:01:26.296Z,101813.22
2023-05-23T18:03:54.801Z,101828.19
2023-05-23T18:06:23.186Z,101818.59
2023-05-23T18:08:51.260Z,101825.97
2023-05-23T18:11:19.732Z,101825.84
2023-05-23T18:13:47.575Z,101830.63
2023-05-23T18:16:15.400Z,101842.75
2023-05-23T18:18:44.791Z,101845.34
2023-05-23T18:21:12.724Z,101835.75
2023-05-23T18:23:40.817Z,101844.72
2023-05-23T18:26:09.097Z,101842.47
2023-05-23T18:28:37.044Z,101848.88
2023-05-23T18:31:05.536Z,101845.34
2023-05-23T18:33:33.708Z,101848.94
2023-05-23T18:36:03.357Z,101848.78
2023-05-23T18:38:31.240Z,101840.50
2023-05-23T18:40:59.216Z,101855.03
2023-05-23T18:43:27.018Z,101847.41
2023-05-23T18:45:55.047Z,101847.34
2023-05-23T18:48:25.353Z,101854.59
2023-05-23T18:50:53.137Z,101854.19
2023-05-23T18:53:23.105Z,101857.72
2023-05-23T18:55:51.376Z,101854.34
2023-05-23T18:58:19.687Z,101851.31
2023-05-23T19:00:47.845Z,101851.66
2023-05-23T19:03:16.129Z,101857.28
2023-05-23T19:05:44.214Z,101854.50
2023-05-23T19:08:12.056Z,101862.13
2023-05-23T19:10:42.243Z,101860.41
2023-05-23T19:13:10.221Z,101859.63
2023-05-23T19:15:38.239Z,101849.91
2023-05-23T19:18:06.243Z,101864.44
2023-05-23T19:20:34.163Z,101857.19
2023-05-23T19:23:02.040Z,101853.63
2023-05-23T19:25:29.940Z,101866.41
2023-05-23T19:27:59.171Z,101868.25
2023-05-23T19:30:27.008Z,101870.69
2023-05-23T19:32:55.352Z,101873.97
2023-05-23T19:35:24.245Z,101868.53
2023-05-23T19:37:52.325Z,101874.47
2023-05-23T19:40:21.518Z,101869.75
2023-05-23T19:42:49.552Z,101876.56
2023-05-23T19:45:19.179Z,101880.81
2023-05-23T19:47:47.367Z,101882.41
2023-05-23T19:50:16.138Z,101875.78
2023-05-23T19:52:44.168Z,101890.34
2023-05-23T19:55:12.082Z,101886.41
2023-05-23T19:57:40.003Z,101884.19
2023-05-23T20:00:10.476Z,101881.63
2023-05-23T20:02:39.931Z,101899.06
2023-05-23T20:05:09.305Z,101896.56
2023-05-23T20:07:37.665Z,101901.97
2023-05-23T20:10:06.672Z,101896.97
2023-05-23T20:12:34.905Z,101913.34
2023-05-23T20:15:03.830Z,101903.81
2023-05-23T20:17:31.914Z,101909.88
2023-05-23T20:20:02.332Z,101916.53
2023-05-23T20:22:30.135Z,101903.81
2023-05-23T20:24:58.136Z,101912.16
2023-05-23T20:27:26.805Z,101911.75
2023-05-23T20:29:54.778Z,101908.91
2023-05-23T20:32:23.247Z,101920.97
2023-05-23T20:34:51.487Z,101915.22
2023-05-23T20:37:21.048Z,101915.03
2023-05-23T20:39:49.438Z,101920.88
2023-05-23T20:42:17.368Z,101905.94
2023-05-23T20:44:46.850Z,101911.09
2023-05-23T20:47:15.611Z,101914.44
2023-05-23T20:49:44.622Z,101905.84
2023-05-23T20:52:12.761Z,101915.84
2023-05-23T20:54:42.782Z,101915.97
2023-05-23T20:57:10.683Z,101920.31
2023-05-23T20:59:38.571Z,101916.44
2023-05-23T21:02:08.010Z,101914.72
2023-05-23T21:04:35.964Z,101911.09
2023-05-23T21:07:03.992Z,101918.19
2023-05-23T21:09:31.973Z,101913.63
2023-05-23T21:12:02.187Z,101914.16
2023-05-23T21:14:30.023Z,101910.59
2023-05-23T21:16:58.129Z,101914.72
2023-05-23T21:19:26.334Z,101920.59
2023-05-23T21:21:56.188Z,101922.44
2023-05-23T21:24:25.372Z,101913.69
2023-05-23T21:26:53.365Z,101914.41
2023-05-23T21:29:22.565Z,101917.94
2023-05-23T21:31:50.664Z,101909.59
2023-05-23T21:34:23.692Z,101924.72
2023-05-23T21:36:52.490Z,101915.66
2023-05-23T21:39:20.829Z,101902.84
2023-05-23T21:41:48.653Z,101914.03
2023-05-23T21:44:17.757Z,101922.19
2023-05-23T21:46:47.437Z,101905.50
2023-05-23T21:49:15.605Z,101918.81
2023-05-23T21:51:44.214Z,101921.66
2023-05-23T21:54:12.411Z,101908.03
2023-05-23T21:56:40.392Z,101915.91
2023-05-23T21:59:08.572Z,101913.28
2023-05-23T22:01:36.794Z,101914.25
2023-05-23T22:04:06.665Z,101908.03
2023-05-23T22:06:35.042Z,101911.88
2023-05-23T22:09:03.033Z,101915.50
2023-05-23T22:11:34.135Z,101913.03
2023-05-23T22:14:02.762Z,101914.09
2023-05-23T22:16:33.261Z,101918.09
2023-05-23T22:19:02.301Z,101921.66
2023-05-23T22:21:31.894Z,101916.50
2023-05-23T22:24:00.229Z,101911.47
2023-05-23T22:26:28.687Z,101920.00
2023-05-23T22:28:57.117Z,101925.88
2023-05-23T22:31:25.092Z,101920.09
2023-05-23T22:33:53.250Z,101921.47
2023-05-23T22:36:22.056Z,101926.53
2023-05-23T22:38:51.651Z,101923.38
2023-05-23T22:41:19.816Z,101917.63
2023-05-23T22:43:47.933Z,101912.97
2023-05-23T22:46:16.188Z,101899.22
2023-05-23T22:48:45.212Z,101911.00
2023-05-23T22:51:14.726Z,101919.13
2023-05-23T22:53:43.299Z,101901.66
2023-05-23T22:56:12.997Z,101909.38
2023-05-23T22:58:41.119Z,101904.75
2023-05-23T23:01:09.596Z,101907.88
2023-05-23T23:03:37.673Z,101907.81
2023-05-23T23:06:07.728Z,101909.19
2023-05-23T23:08:36.044Z,101909.38
2023-05-23T23:11:04.109Z,101915.50
2023-05-23T23:13:33.479Z,101908.75
2023-05-23T23:16:01.296Z,101908.94
2023-05-23T23:18:29.324Z,101903.44
2023-05-23T23:20:57.636Z,101914.78
2023-05-23T23:23:25.536Z,101914.56
2023-05-23T23:25:53.685Z,101909.53
2023-05-23T23:28:21.666Z,101915.97
2023-05-23T23:30:50.915Z,101916.22
2023-05-23T23:33:18.802Z,101906.84
2023-05-23T23:35:48.714Z,101905.13
2023-05-23T23:38:16.906Z,101915.34
2023-05-23T23:40:45.920Z,101905.72
2023-05-23T23:43:14.034Z,101897.72
2023-05-23T23:45:42.204Z,101903.31
2023-05-23T23:48:13.896Z,101904.03
2023-05-23T23:50:42.392Z,101906.84
2023-05-23T23:53:10.506Z,101901.56
2023-05-23T23:55:38.353Z,101900.09
2023-05-23T23:58:06.245Z,101902.53
